Latest Coastal Weather Observations for Tewantin

IDQ60701

Issued at 1:13 pm EST Thursday 29 September 2016 (issued every 10 minutes, with the page automatically refreshed every 10 minutes)

About coastal observations | Map of coastal stations | Coastal observations for QLD | Marine services | Other Formats
Station Details ID: 040908 Name: TEWANTIN RSL PARK Lat: -26.39 Lon: 153.04 Height: 6.4 m
Data from the previous 72 hours. | See also: Recent months at Tewantin
Date/Time
EST
Temp
°C
Wind Pressure Rain since
9am
mm
Weather Cloud Vis
km
Sea
Height
m
Swell
Dir  Spd
kts
Gust
kts
hPa Trend Height
m
Period
s
Dir
29/01:00pm 22.6 N 4 5 1008.4 - 0.0 - - - - - - -
29/12:30pm 23.2 NNW 7 10 1008.5 - 0.0 - - - - - - -
29/12:00pm 23.4 N 7 11 1009.0 - 0.0 - - - - - - -
29/11:30am 23.4 NNW 9 17 1009.7 - 0.0 - - - - - - -
29/11:00am 23.1 N 11 17 1009.5 - 0.0 - - - - - - -
29/10:30am 23.1 N 9 13 1009.7 - 0.0 - - - - - - -
29/10:00am 21.1 N 5 7 1010.2 - 0.0 - - - - - - -
29/09:30am 20.1 NW 4 7 1010.6 - 0.0 - - - - - - -
29/09:00am 19.8 NW 5 9 1010.3 - 0.0 - - - - - - -
29/08:30am 19.1 N 6 9 1009.5 - 0.0 - - - - - - -
29/08:00am 18.5 N 5 8 1010.3 - 0.0 - - - - - - -
29/07:30am 17.9 N 3 5 1010.6 - 0.0 - - - - - - -
29/07:00am 17.1 N 5 7 1010.4 - 0.0 - - - - - - -
29/06:30am 16.8 NNW 5 7 1010.5 - 0.0 - - - - - - -
29/06:00am 16.3 NNW 5 7 1010.0 - 0.0 - - - - - - -
29/05:30am 16.2 NW 4 5 1009.8 - 0.0 - - - - - - -
29/05:00am 16.1 WNW 1 4 1009.9 - 0.0 - - - - - - -
29/04:30am 16.1 WNW 2 4 1010.0 - 0.0 - - - - - - -
29/04:00am 16.5 NW 4 5 1010.1 - 0.0 - - - - - - -
29/03:30am 16.3 NNW 4 5 1010.2 - 0.0 - - - - - - -
29/03:00am 16.4 NNW 3 5 1010.4 - 0.0 - - - - - - -
29/02:30am 16.8 NNW 4 6 1010.6 - 0.0 - - - - - - -
29/02:00am 17.0 NNW 4 5 1010.6 - 0.0 - - - - - - -
29/01:30am 17.2 NW 5 7 1011.1 - 0.0 - - - - - - -
29/01:00am 17.3 NW 5 7 1011.6 - 0.0 - - - - - - -
29/12:30am 16.7 NW 5 7 1011.7 - 0.0 - - - - - - -
29/12:00am 16.6 NW 2 4 1012.5 - 0.0 - - - - - - -
 
Date/Time
EST
Temp
°C
Wind Pressure Rain since
9am
mm
Weather Cloud Vis
km
Sea
Height
m
Swell
Dir  Spd
kts
Gust
kts
hPa Trend Height
m
Period
s
Dir
28/11:30pm 16.6 CALM 0 0 1012.6 - 0.0 - - - - - - -
28/11:00pm 17.5 CALM 0 0 1012.8 - 0.0 - - - - - - -
28/10:30pm 17.5 CALM 0 0 1012.7 - 0.0 - - - - - - -
28/10:00pm 17.7 CALM 0 0 1012.8 - 0.0 - - - - - - -
28/09:30pm 17.7 CALM 0 0 1012.8 - 0.0 - - - - - - -
28/09:00pm 17.8 WSW 1 4 1013.0 - 0.0 - - - - - - -
28/08:30pm 17.9 CALM 0 0 1012.8 - 0.0 - - - - - - -
28/08:00pm 18.4 W 1 4 1012.9 - 0.0 - - - - - - -
28/07:30pm 19.0 N 1 3 1012.5 - 0.0 - - - - - - -
28/07:00pm 19.5 CALM 0 0 1012.4 - 0.0 - - - - - - -
28/06:30pm 19.7 ENE 3 5 1012.1 - 0.0 - - - - - - -
28/06:00pm 20.4 ENE 4 5 1011.7 - 0.0 - - - - - - -
28/05:30pm 21.3 NE 5 7 1011.6 - 0.0 - - - - - - -
28/05:00pm 22.0 NE 6 8 1011.4 - 0.0 - - - - - - -
28/04:30pm 22.6 NE 7 11 1011.3 - 0.0 - - - - - - -
28/04:00pm 22.9 NE 7 12 1010.8 - 0.0 - - - - - - -
28/03:30pm 23.6 NE 7 11 1010.5 - 0.0 - - - - - - -
28/03:00pm 23.9 NE 8 12 1010.9 - 0.0 - - - - - - -
28/02:30pm 24.4 NE 8 13 1011.0 - 0.0 - - - - - - -
28/02:00pm 24.7 ENE 8 14 1011.3 - 0.0 - - - - - - -
28/01:30pm 25.3 E 7 11 1011.9 - 0.0 - - - - - - -
28/01:00pm 25.0 ENE 9 14 1012.1 - 0.0 - - - - - - -
28/12:30pm 25.0 E 9 14 1012.3 - 0.0 - - - - - - -
28/12:00pm 25.3 ESE 9 12 1012.6 - 0.0 - - - - - - -
28/11:30am 25.7 NE 7 11 1013.0 - 0.0 - - - - - - -
28/11:00am 25.4 E 8 12 1013.5 - 0.0 - - - - - - -
28/10:30am 25.5 SSE 4 7 1013.9 - 0.0 - - - - - - -
28/10:00am 25.2 ESE 3 7 1014.3 - 0.0 - - - - - - -
28/09:30am 24.2 NE 2 5 1014.2 - 0.0 - - - - - - -
28/09:00am 24.7 WSW 4 7 1014.2 - 0.0 - - - - - - -
28/08:30am 23.2 W 3 7 1014.2 - 0.0 - - - - - - -
28/08:00am 21.1 WNW 5 6 1014.4 - 0.0 - - - - - - -
28/07:30am 18.0 NNW 3 4 1014.5 - 0.0 - - - - - - -
28/07:00am 15.8 NNW 4 5 1014.2 - 0.0 - - - - - - -
28/06:30am 14.6 NW 3 5 1013.6 - 0.0 - - - - - - -
28/06:00am 13.1 NW 3 4 1013.1 - 0.0 - - - - - - -
28/05:30am 12.2 NNW 3 5 1012.8 - 0.0 - - - - - - -
28/05:00am 12.2 NNW 4 5 1012.5 - 0.0 - - - - - - -
28/04:30am 12.1 NE 1 4 1012.2 - 0.0 - - - - - - -
28/04:00am 12.5 N 1 3 1012.0 - 0.0 - - - - - - -
28/03:30am 12.9 CALM 0 0 1011.9 - 0.0 - - - - - - -
28/03:00am 12.2 CALM 0 0 1012.0 - 0.0 - - - - - - -
28/02:30am 12.7 CALM 0 0 1012.0 - 0.0 - - - - - - -
28/02:00am 12.9 CALM 0 0 1012.3 - 0.0 - - - - - - -
28/01:30am 13.2 CALM 0 0 1012.4 - 0.0 - - - - - - -
28/01:00am 13.2 CALM 0 0 1012.6 - 0.0 - - - - - - -
28/12:30am 13.4 CALM 0 0 1012.9 - 0.0 - - - - - - -
28/12:00am 13.7 CALM 0 0 1013.1 - 0.0 - - - - - - -
 
Date/Time
EST
Temp
°C
Wind Pressure Rain since
9am
mm
Weather Cloud Vis
km
Sea
Height
m
Swell
Dir  Spd
kts
Gust
kts
hPa Trend Height
m
Period
s
Dir
27/11:30pm 13.9 CALM 0 0 1013.2 - 0.0 - - - - - - -
27/11:00pm 14.0 CALM 0 0 1013.5 - 0.0 - - - - - - -
27/10:30pm 14.6 WNW 2 3 1013.6 - 0.0 - - - - - - -
27/10:00pm 14.5 W 1 4 1013.6 - 0.0 - - - - - - -
27/09:30pm 15.0 NW 3 4 1013.5 - 0.0 - - - - - - -
27/09:00pm 15.6 WNW 1 3 1013.5 - 0.0 - - - - - - -
27/08:30pm 16.1 CALM 0 0 1013.5 - 0.0 - - - - - - -
27/08:00pm 16.8 CALM 0 0 1013.3 - 0.0 - - - - - - -
27/07:30pm 17.5 CALM 0 0 1013.1 - 0.0 - - - - - - -
27/07:00pm 19.0 SW 2 3 1012.9 - 0.0 - - - - - - -
27/06:30pm 19.3 NW 2 4 1012.8 - 0.0 - - - - - - -
27/06:00pm 19.6 NNE 5 8 1012.2 - 0.0 - - - - - - -
27/05:30pm 20.1 NNE 5 7 1012.1 - 0.0 - - - - - - -
27/05:00pm 20.6 NNE 7 11 1011.5 - 0.0 - - - - - - -
27/04:30pm 21.2 NNE 5 9 1011.7 - 0.0 - - - - - - -
27/04:00pm 24.7 WNW 4 10 1011.5 - 0.0 - - - - - - -
27/03:30pm 24.8 W 3 7 1011.6 - 0.0 - - - - - - -
27/03:00pm 24.0 SW 3 5 1012.0 - 0.0 - - - - - - -
27/02:30pm 24.8 SSW 5 8 1011.9 - 0.0 - - - - - - -
27/02:00pm 24.0 SSW 6 9 1011.8 - 0.0 - - - - - - -
27/01:30pm 23.6 SSW 6 9 1012.7 - 0.0 - - - - - - -
27/01:00pm 23.7 S 5 7 1012.7 - 0.0 - - - - - - -
27/12:30pm 23.4 W 5 9 1013.2 - 0.0 - - - - - - -
27/12:00pm 23.9 SW 6 11 1013.3 - 0.0 - - - - - - -
27/11:30am 23.9 SW 7 13 1013.9 - 0.0 - - - - - - -
27/11:00am 23.2 SSW 7 11 1014.2 - 0.0 - - - - - - -
27/10:30am 23.6 SW 6 11 1014.4 - 0.0 - - - - - - -
27/10:00am 23.3 SW 5 11 1014.7 - 0.0 - - - - - - -
27/09:30am 21.7 SSW 7 13 1015.0 - 0.0 - - - - - - -
27/09:00am 21.7 SSW 7 12 1015.0 - 0.0 - - - - - - -
27/08:30am 20.3 S 7 12 1014.5 - 0.0 - - - - - - -
27/08:00am 19.2 SSW 4 6 1014.4 - 0.0 - - - - - - -
27/07:30am 19.0 SW 4 7 1014.1 - 0.0 - - - - - - -
27/07:00am 17.6 SW 3 4 1013.8 - 0.0 - - - - - - -
27/06:30am 17.0 CALM 0 1 1013.5 - 0.0 - - - - - - -
27/06:00am 17.2 WSW 2 4 1013.1 - 0.0 - - - - - - -
27/05:30am 17.4 SW 3 5 1012.9 - 0.0 - - - - - - -
27/05:00am 17.3 WSW 4 6 1012.7 - 0.0 - - - - - - -
27/04:30am 16.7 WSW 2 7 1012.5 - 0.0 - - - - - - -
27/04:00am 16.9 WSW 3 5 1012.2 - 0.0 - - - - - - -
27/03:30am 16.8 WSW 3 4 1012.0 - 0.0 - - - - - - -
27/03:00am 16.9 W 3 5 1011.9 - 0.0 - - - - - - -
27/02:30am 16.3 CALM 0 0 1012.4 - 0.0 - - - - - - -
27/02:00am 16.5 CALM 0 0 1012.6 - 0.0 - - - - - - -
27/01:30am 16.3 WSW 3 5 1012.8 - 0.0 - - - - - - -
27/01:00am 16.8 CALM 0 0 1012.7 - 0.0 - - - - - - -
27/12:30am 17.1 NW 3 5 1012.7 - 0.0 - - - - - - -
27/12:00am 16.8 WNW 3 5 1013.0 - 0.0 - - - - - - -
 
Date/Time
EST
Temp
°C
Wind Pressure Rain since
9am
mm
Weather Cloud Vis
km
Sea
Height
m
Swell
Dir  Spd
kts
Gust
kts
hPa Trend Height
m
Period
s
Dir
26/11:30pm 16.3 NNW 2 4 1013.1 - 0.0 - - - - - - -
26/11:00pm 16.4 WNW 3 5 1013.3 - 0.0 - - - - - - -
26/10:30pm 16.8 WNW 3 4 1013.2 - 0.0 - - - - - - -
26/10:00pm 16.7 CALM 0 1 1013.4 - 0.0 - - - - - - -
26/09:30pm 16.5 CALM 0 0 1013.2 - 0.0 - - - - - - -
26/09:00pm 17.6 NNW 3 4 1013.0 - 0.0 - - - - - - -
26/08:30pm 18.0 W 3 6 1012.9 - 0.0 - - - - - - -
26/08:00pm 18.1 WNW 3 5 1012.5 - 0.0 - - - - - - -
26/07:30pm 18.8 NNW 4 5 1011.9 - 0.0 - - - - - - -
26/07:00pm 19.5 N 3 4 1011.8 - 0.0 - - - - - - -
26/06:30pm 19.5 N 3 4 1011.6 - 0.0 - - - - - - -
26/06:00pm 20.0 NNE 4 5 1011.3 - 0.0 - - - - - - -
26/05:30pm 20.6 NE 4 7 1011.0 - 0.0 - - - - - - -
26/05:00pm 21.4 NE 5 9 1010.7 - 0.0 - - - - - - -
26/04:30pm 21.8 NE 7 10 1010.5 - 0.0 - - - - - - -
26/04:00pm 22.3 NE 8 11 1010.2 - 0.0 - - - - - - -
26/03:30pm 22.8 NE 7 10 1010.1 - 0.0 - - - - - - -
26/03:00pm 23.7 NE 7 9 1010.1 - 0.0 - - - - - - -
26/02:30pm 24.1 NE 7 10 1009.9 - 0.0 - - - - - - -
26/02:00pm 24.4 NE 8 11 1010.2 - 0.0 - - - - - - -
26/01:30pm 24.4 ENE 7 10 1010.6 - 0.0 - - - - - - -

Other Formats:

Comma delimited format used in spreadsheet applications
http://www.bom.gov.au/fwo/IDQ60701/IDQ60701.94570.axf

JavaScript Object Notation format (JSON) in row-major order
http://www.bom.gov.au/fwo/IDQ60701/IDQ60701.94570.json